Terminal Aerodrome Forecast
Issued by NWS Wakefield, VA

Home | Current Version | Previous Version | Text Only | Print | Product List | Glossary On
Versions: 1 2 3 4 5 6 7 8 9 10 11 12 13 14
000
FTUS41 KAKQ 262343
TAFSBY
TAF
KSBY 262343Z 2700/2724 20012KT P6SM BKN250
     FM270600 32012G20KT P6SM -RA OVC015
     FM271100 35010KT 4SM -RA BR OVC012
     FM272000 33010KT 5SM -RA BR OVC015=

USA.gov is the U.S. government's official web portal to all federal, state and local government web resources and services.